Time;durP1;ratioP1;P1;durP2;ratioP2;P2;SDS_P1;SDS_P2;PMS_P1;PMS_P2;Temp;Humidity;BMP_temperature;BMP_pressure;BME280_temperature;BME280_humidity;BME280_pressure;Samples;Min_cycle;Max_cycle;Signal;HPM_P1;HPM_P2
2020/12/16 00:00:09;;;;;;;26.62;12.30;;;;;;;1.68;100.00;102002.85;1790692;80;21171;-57
2020/12/16 00:02:38;;;;;;;25.85;12.58;;;;;;;1.68;100.00;102000.63;1790762;80;21180;-56
2020/12/16 00:05:07;;;;;;;26.52;13.00;;;;;;;1.67;100.00;101999.75;1790743;80;21190;-56
2020/12/16 00:07:36;;;;;;;27.02;12.45;;;;;;;1.66;100.00;101995.31;1790576;80;21151;-57
2020/12/16 00:10:06;;;;;;;26.75;11.95;;;;;;;1.64;100.00;101998.77;1790825;80;21073;-57
2020/12/16 00:12:39;;;;;;;28.75;13.18;;;;;;;1.60;100.00;101991.20;1790721;80;21488;-57
2020/12/16 00:15:07;;;;;;;30.10;13.43;;;;;;;1.57;100.00;102000.38;1761510;80;21056;-57
2020/12/16 00:17:35;;;;;;;27.20;12.80;;;;;;;1.56;100.00;101982.73;1790703;80;21305;-57
2020/12/16 00:20:05;;;;;;;28.52;13.78;;;;;;;1.57;100.00;101997.73;1790628;80;21128;-56
2020/12/16 00:22:40;;;;;;;28.35;12.98;;;;;;;1.54;100.00;102001.19;1790666;80;21067;-57
2020/12/16 00:25:09;;;;;;;26.95;12.28;;;;;;;1.53;100.00;101994.12;1790625;80;21143;-57
2020/12/16 00:27:36;;;;;;;29.77;12.82;;;;;;;1.54;100.00;102001.64;1790774;80;21068;-56
2020/12/16 00:30:05;;;;;;;29.50;13.08;;;;;;;1.51;100.00;102007.73;1790643;80;21199;-57
2020/12/16 00:32:36;;;;;;;26.15;12.00;;;;;;;1.48;100.00;102001.06;1790638;80;21063;-56
2020/12/16 00:35:08;;;;;;;28.70;12.90;;;;;;;1.46;100.00;102009.84;1790650;80;21067;-56
2020/12/16 00:37:40;;;;;;;27.90;11.55;;;;;;;1.45;100.00;102013.34;1778144;80;21180;-55
2020/12/16 00:40:12;;;;;;;28.98;12.30;;;;;;;1.47;100.00;101995.77;1775440;80;21177;-57
2020/12/16 00:42:40;;;;;;;26.73;12.15;;;;;;;1.46;100.00;102004.55;1775475;80;21374;-57
2020/12/16 00:45:07;;;;;;;27.22;11.63;;;;;;;1.45;100.00;102019.95;1749475;80;21116;-57
2020/12/16 00:47:36;;;;;;;26.40;10.90;;;;;;;1.42;100.00;101996.52;1775444;80;21060;-57
2020/12/16 00:50:06;;;;;;;28.95;11.55;;;;;;;1.40;100.00;102003.53;1775495;80;21064;-57
2020/12/16 00:52:35;;;;;;;26.20;11.28;;;;;;;1.38;100.00;101994.67;1772431;80;21083;-57
2020/12/16 00:55:05;;;;;;;28.75;12.53;;;;;;;1.38;100.00;101999.08;1775452;80;21692;-56
2020/12/16 00:57:34;;;;;;;31.12;13.75;;;;;;;1.39;100.00;102002.19;1775341;80;21238;-56
2020/12/16 01:00:08;;;;;;;28.70;13.28;;;;;;;1.39;100.00;101997.78;1775551;80;21064;-56
2020/12/16 01:02:46;;;;;;;30.27;12.97;;;;;;;1.40;100.00;101978.42;1775635;80;21083;-56
2020/12/16 01:05:16;;;;;;;24.87;11.45;;;;;;;1.42;100.00;101979.34;1775464;80;21040;-56
2020/12/16 01:07:44;;;;;;;24.67;11.40;;;;;;;1.46;100.00;101980.77;1749331;80;21358;-56
2020/12/16 01:10:14;;;;;;;28.45;12.05;;;;;;;1.49;100.00;101983.02;1775307;80;21100;-56
2020/12/16 01:12:44;;;;;;;24.85;10.95;;;;;;;1.50;100.00;101986.58;1775541;80;21517;-56
2020/12/16 01:15:19;;;;;;;28.17;10.80;;;;;;;1.49;100.00;101993.59;1749392;80;20946;-57
2020/12/16 01:17:49;;;;;;;25.12;11.00;;;;;;;1.43;100.00;101985.09;1775454;80;21100;-57
2020/12/16 01:20:21;;;;;;;27.62;10.90;;;;;;;1.39;100.00;101986.33;1775087;80;21499;-56
2020/12/16 01:22:52;;;;;;;26.27;10.85;;;;;;;1.38;100.00;101989.39;1773568;80;21560;-56
2020/12/16 01:25:20;;;;;;;24.75;10.98;;;;;;;1.37;100.00;101986.28;1775359;80;21116;-57
2020/12/16 01:27:55;;;;;;;26.82;11.88;;;;;;;1.38;100.00;101976.17;1775512;80;21568;-57
2020/12/16 01:30:23;;;;;;;26.52;12.07;;;;;;;1.40;100.00;101978.42;1775455;80;21056;-56
2020/12/16 01:32:51;;;;;;;28.80;12.85;;;;;;;1.42;100.00;101978.02;1775460;80;21380;-57
2020/12/16 01:35:20;;;;;;;28.20;11.57;;;;;;;1.43;100.00;101987.73;1775354;80;21151;-56
2020/12/16 01:37:48;;;;;;;26.55;11.40;;;;;;;1.43;100.00;101986.86;1791343;79;21174;-56
2020/12/16 01:40:16;;;;;;;25.15;11.63;;;;;;;1.45;100.00;101978.98;1787259;79;21582;-57
2020/12/16 01:42:45;;;;;;;24.40;10.95;;;;;;;1.49;100.00;101988.31;1812059;79;21112;-57
2020/12/16 01:45:21;;;;;;;22.98;10.88;;;;;;;1.53;100.00;101989.28;1812131;79;21668;-57
2020/12/16 01:47:50;;;;;;;34.90;13.70;;;;;;;1.55;100.00;101975.66;1812095;79;21543;-57
2020/12/16 01:50:19;;;;;;;28.20;12.70;;;;;;;1.59;100.00;101981.92;1812046;79;21217;-56
2020/12/16 01:52:47;;;;;;;24.35;11.48;;;;;;;1.60;100.00;101986.35;1812042;79;21060;-57
2020/12/16 01:55:16;;;;;;;24.05;11.05;;;;;;;1.60;100.00;101984.58;1812152;79;21037;-56
2020/12/16 01:57:46;;;;;;;20.40;9.88;;;;;;;1.60;100.00;101977.10;1810529;79;21212;-57
2020/12/16 02:00:15;;;;;;;25.88;11.65;;;;;;;1.60;100.00;101979.30;1787064;79;21159;-57
2020/12/16 02:02:49;;;;;;;22.82;11.48;;;;;;;1.61;100.00;101975.79;1812098;79;20946;-57
2020/12/16 02:05:20;;;;;;;23.50;11.33;;;;;;;1.60;100.00;101989.87;1811242;79;21202;-57
2020/12/16 02:07:49;;;;;;;29.87;13.15;;;;;;;1.61;100.00;101982.84;1812145;79;21127;-57
2020/12/16 02:10:18;;;;;;;25.80;10.68;;;;;;;1.61;100.00;101975.79;1812024;79;21353;-57
2020/12/16 02:12:46;;;;;;;30.92;13.48;;;;;;;1.63;100.00;101978.48;1812083;79;21064;-56
2020/12/16 02:15:14;;;;;;;24.35;10.65;;;;;;;1.62;100.00;101976.25;1812005;79;21048;-57
2020/12/16 02:17:41;;;;;;;23.80;10.03;;;;;;;1.63;100.00;101984.65;1812239;79;21124;-57
2020/12/16 02:20:09;;;;;;;23.87;11.15;;;;;;;1.62;100.00;101984.63;1812295;79;21121;-57
2020/12/16 02:22:38;;;;;;;21.87;9.85;;;;;;;1.63;100.00;101977.16;1811654;79;22144;-57
2020/12/16 02:25:10;;;;;;;21.27;10.35;;;;;;;1.65;100.00;101988.22;1812126;79;21108;-57
2020/12/16 02:27:41;;;;;;;25.32;10.82;;;;;;;1.66;100.00;101983.42;1811626;79;21147;-57
2020/12/16 02:30:14;;;;;;;26.60;11.75;;;;;;;1.67;100.00;101981.66;1811592;79;21123;-57
2020/12/16 02:33:00;;;;;;;31.20;12.90;;;;;;;1.67;100.00;101982.56;1812220;79;21097;-56
2020/12/16 02:35:29;;;;;;;33.02;13.35;;;;;;;1.64;100.00;101982.46;1811889;79;22197;-57
2020/12/16 02:37:59;;;;;;;28.90;11.65;;;;;;;1.61;100.00;101987.69;1783475;79;21145;-55
2020/12/16 02:40:27;;;;;;;27.35;12.90;;;;;;;1.56;100.00;101988.02;1791462;80;21483;-57
2020/12/16 02:42:54;;;;;;;28.60;11.68;;;;;;;1.54;100.00;101989.30;1805061;79;21177;-57
2020/12/16 02:45:22;;;;;;;27.70;11.80;;;;;;;1.53;100.00;101995.89;1760171;81;21210;-57
2020/12/16 02:47:52;;;;;;;25.30;11.63;;;;;;;1.50;100.00;101998.47;1751129;81;21729;-56
2020/12/16 02:50:21;;;;;;;21.80;9.83;;;;;;;1.50;100.00;102009.92;1804970;79;21127;-57
2020/12/16 02:52:49;;;;;;;22.48;10.93;;;;;;;1.50;100.00;101995.83;1805158;79;21122;-56
2020/12/16 02:55:18;;;;;;;23.95;11.65;;;;;;;1.53;100.00;101998.53;1759752;81;21220;-57
2020/12/16 02:57:52;;;;;;;24.65;10.75;;;;;;;1.54;100.00;102005.61;1797939;79;21096;-56
2020/12/16 03:00:19;;;;;;;21.23;9.90;;;;;;;1.54;100.00;102016.18;1759999;81;21214;-57
2020/12/16 03:02:51;;;;;;;22.30;9.25;;;;;;;1.54;100.00;102016.18;1796237;79;21142;-56
2020/12/16 03:05:36;;;;;;;;;;;;;;;1.55;100.00;102023.25;1686961;85;21116;-58
2020/12/16 03:08:07;;;;;;;19.12;10.10;;;;;;;1.52;100.00;102025.38;1758770;80;21410;-56
2020/12/16 03:10:37;;;;;;;18.17;9.03;;;;;;;1.52;100.00;102033.77;1765773;81;21126;-57
2020/12/16 03:13:05;;;;;;;22.58;10.93;;;;;;;1.51;100.00;102031.98;1760033;81;21447;-56
2020/12/16 03:15:35;;;;;;;22.55;10.53;;;;;;;1.50;100.00;102039.44;1805038;79;21079;-56
2020/12/16 03:18:04;;;;;;;20.48;9.38;;;;;;;1.50;100.00;102035.48;1759982;81;21490;-56
2020/12/16 03:20:31;;;;;;;16.50;8.45;;;;;;;1.51;100.00;102038.14;1805126;79;21115;-56
2020/12/16 03:22:59;;;;;;;23.18;9.10;;;;;;;1.53;100.00;102047.44;1760019;81;21110;-56
2020/12/16 03:25:40;;;;;;;18.77;8.43;;;;;;;1.54;100.00;102051.88;1746280;79;21408;-56
2020/12/16 03:28:26;;;;;;;17.45;8.50;;;;;;;1.54;100.00;102055.83;1805005;79;21159;-57
2020/12/16 03:30:56;;;;;;;18.50;9.05;;;;;;;1.53;100.00;102048.77;1756682;81;21158;-57
2020/12/16 03:33:44;;;;;;;15.28;8.28;;;;;;;1.55;100.00;102054.97;1805077;79;21103;-57
2020/12/16 03:36:17;;;;;;;19.42;9.33;;;;;;;1.56;100.00;102059.41;1800680;79;21120;-57
2020/12/16 03:38:46;;;;;;;15.80;8.40;;;;;;;1.56;100.00;102062.95;1805955;79;22226;-56
2020/12/16 03:41:15;;;;;;;14.07;7.62;;;;;;;1.57;100.00;102056.81;1811815;79;20954;-57
2020/12/16 03:43:46;;;;;;;14.25;7.28;;;;;;;1.57;100.00;102066.48;1811735;79;21088;-56
2020/12/16 03:46:13;;;;;;;14.13;6.92;;;;;;;1.53;100.00;102068.14;1811826;79;21060;-58
2020/12/16 03:48:42;;;;;;;11.33;5.55;;;;;;;1.50;100.00;102061.91;1811990;79;21115;-57
2020/12/16 03:51:13;;;;;;;14.35;6.53;;;;;;;1.50;100.00;102061.47;1812087;79;22324;-57
2020/12/16 03:53:43;;;;;;;11.88;6.58;;;;;;;1.50;100.00;102079.09;1811863;79;21060;-57
2020/12/16 03:56:18;;;;;;;10.05;6.15;;;;;;;1.51;100.00;102062.38;1728185;79;21175;-56
2020/12/16 03:58:49;;;;;;;10.43;6.17;;;;;;;1.55;100.00;102065.55;1777266;79;21167;-57
2020/12/16 04:01:20;;;;;;;12.68;5.85;;;;;;;1.59;100.00;102070.05;1808022;79;21222;-56
2020/12/16 04:03:49;;;;;;;9.08;5.00;;;;;;;1.62;100.00;102078.05;1811824;79;21473;-56
2020/12/16 04:06:21;;;;;;;12.33;6.47;;;;;;;1.64;100.00;102075.01;1811204;79;21164;-56
2020/12/16 04:08:50;;;;;;;12.80;7.15;;;;;;;1.63;100.00;102077.19;1811831;79;21163;-56
2020/12/16 04:11:19;;;;;;;10.75;6.30;;;;;;;1.66;100.00;102080.34;1810588;79;21127;-57
2020/12/16 04:13:49;;;;;;;10.68;6.47;;;;;;;1.66;100.00;102083.90;1811431;79;21159;-56
2020/12/16 04:16:19;;;;;;;12.53;6.78;;;;;;;1.64;100.00;102092.19;1811874;79;21392;-56
2020/12/16 04:18:48;;;;;;;9.63;5.87;;;;;;;1.60;100.00;102082.41;1784633;79;21175;-56
2020/12/16 04:21:17;;;;;;;11.22;5.95;;;;;;;1.59;100.00;102093.84;1811902;79;21170;-56
2020/12/16 04:23:45;;;;;;;15.20;5.95;;;;;;;1.58;100.00;102094.70;1811874;79;21088;-57
2020/12/16 04:26:15;;;;;;;11.43;6.30;;;;;;;1.56;100.00;102084.52;1808988;79;21151;-57
2020/12/16 04:28:43;;;;;;;10.68;5.50;;;;;;;1.56;100.00;102097.73;1811909;79;21366;-57
2020/12/16 04:31:11;;;;;;;10.50;5.33;;;;;;;1.57;100.00;102100.84;1811745;79;21116;-56
2020/12/16 04:33:39;;;;;;;9.78;5.37;;;;;;;1.56;100.00;102104.34;1811885;79;21132;-57
2020/12/16 04:36:09;;;;;;;9.00;5.42;;;;;;;1.54;100.00;102099.45;1811555;79;21052;-57
2020/12/16 04:38:37;;;;;;;11.70;5.62;;;;;;;1.53;100.00;102112.20;1756665;81;21074;-56
2020/12/16 04:41:08;;;;;;;14.45;7.20;;;;;;;1.52;100.00;102110.42;1804218;79;23590;-57
2020/12/16 04:43:41;;;;;;;14.78;7.17;;;;;;;1.50;100.00;102110.38;1804137;79;20937;-57
2020/12/16 04:46:14;;;;;;;13.13;7.55;;;;;;;1.52;100.00;102107.78;1756695;81;21150;-56
2020/12/16 04:48:45;;;;;;;16.82;7.42;;;;;;;1.55;100.00;102118.42;1804162;79;21591;-57
2020/12/16 04:51:17;;;;;;;12.88;6.80;;;;;;;1.56;100.00;102113.60;1755434;81;21069;-57
2020/12/16 04:53:45;;;;;;;10.38;5.58;;;;;;;1.56;100.00;102125.09;1804116;79;21354;-57
2020/12/16 04:56:15;;;;;;;12.13;6.17;;;;;;;1.57;100.00;102115.39;1755554;81;21094;-56
2020/12/16 04:58:47;;;;;;;11.75;6.25;;;;;;;1.56;100.00;102114.52;1793661;79;21123;-56
2020/12/16 05:01:15;;;;;;;15.15;7.40;;;;;;;1.56;100.00;102126.41;1756712;81;21055;-56
2020/12/16 05:03:45;;;;;;;15.08;7.72;;;;;;;1.57;100.00;102121.59;1803256;79;21047;-56
2020/12/16 05:06:35;;;;;;;13.78;7.47;;;;;;;1.58;100.00;102114.53;1755544;81;21914;-57
2020/12/16 05:09:12;;;;;;;13.68;6.83;;;;;;;1.60;100.00;102129.13;1804143;79;21142;-56
2020/12/16 05:11:50;;;;;;;14.28;7.62;;;;;;;1.61;100.00;102116.36;1756757;81;21421;-57
2020/12/16 05:14:20;;;;;;;18.48;10.13;;;;;;;1.63;100.00;102124.78;1804169;79;21060;-58
2020/12/16 05:17:04;;;;;;;22.02;9.65;;;;;;;1.63;100.00;102126.55;1804241;79;21036;-56
2020/12/16 05:19:43;;;;;;;15.78;8.00;;;;;;;1.63;100.00;102123.91;1804155;79;21431;-56
2020/12/16 05:22:14;;;;;;;19.17;7.85;;;;;;;1.64;100.00;102127.89;1756608;81;21054;-55
2020/12/16 05:24:42;;;;;;;17.30;9.40;;;;;;;1.65;100.00;102123.06;1804084;79;21126;-56
2020/12/16 05:27:19;;;;;;;17.77;9.50;;;;;;;1.66;100.00;102130.17;1804080;79;21121;-56
2020/12/16 05:29:52;;;;;;;19.23;9.33;;;;;;;1.65;99.93;102136.28;1804116;79;21035;-56
2020/12/16 05:32:22;;;;;;;16.50;8.73;;;;;;;1.62;99.81;102132.25;1756809;81;21387;-55
2020/12/16 05:34:50;;;;;;;18.17;8.75;;;;;;;1.58;99.85;102134.36;1804064;79;21594;-56
2020/12/16 05:37:32;;;;;;;16.48;9.18;;;;;;;1.56;99.92;102138.72;1761032;81;21214;-56
2020/12/16 05:40:10;;;;;;;16.85;9.43;;;;;;;1.57;100.00;102149.76;1776653;80;21119;-56
2020/12/16 05:42:38;;;;;;;22.52;9.35;;;;;;;1.56;100.00;102138.72;1764258;81;21037;-55
2020/12/16 05:45:14;;;;;;;18.30;9.73;;;;;;;1.55;100.00;102147.09;1775720;80;21502;-55
2020/12/16 05:48:02;;;;;;;20.30;10.13;;;;;;;1.53;100.00;102146.13;1763673;81;21156;-55
2020/12/16 05:50:51;;;;;;;17.32;9.35;;;;;;;1.51;100.00;102150.48;1776947;80;21730;-56
2020/12/16 05:53:24;;;;;;;21.25;10.32;;;;;;;1.51;100.00;102143.88;1776933;80;21151;-56
2020/12/16 05:56:01;;;;;;;19.73;9.73;;;;;;;1.54;100.00;102151.00;1776991;80;21055;-56
2020/12/16 05:58:31;;;;;;;20.60;10.40;;;;;;;1.56;100.00;102149.30;1764333;81;21429;-56
2020/12/16 06:01:04;;;;;;;21.80;11.43;;;;;;;1.58;100.00;102155.51;1776876;80;21031;-55
2020/12/16 06:03:35;;;;;;;19.67;10.30;;;;;;;1.60;100.00;102160.41;1777015;80;21535;-55
2020/12/16 06:06:10;;;;;;;15.70;8.93;;;;;;;1.62;100.00;102157.81;1776844;80;21008;-55
2020/12/16 06:08:41;;;;;;;18.12;10.18;;;;;;;1.61;100.00;102164.83;1777014;80;21039;-56
2020/12/16 06:11:11;;;;;;;19.48;9.95;;;;;;;1.61;100.00;102159.55;1776901;80;21219;-57
2020/12/16 06:13:42;;;;;;;19.95;10.25;;;;;;;1.61;100.00;102163.52;1776909;79;21155;-55
2020/12/16 06:16:10;;;;;;;21.02;10.48;;;;;;;1.61;99.96;102175.41;1764142;81;21133;-56
2020/12/16 06:18:39;;;;;;;20.80;10.00;;;;;;;1.60;99.65;102170.98;1776959;80;21051;-55
2020/12/16 06:21:09;;;;;;;21.90;10.30;;;;;;;1.59;99.65;102172.28;1776846;80;21083;-55
2020/12/16 06:23:43;;;;;;;21.27;10.78;;;;;;;1.60;99.68;102159.53;1764460;81;22084;-56
2020/12/16 06:26:17;;;;;;;22.77;10.90;;;;;;;1.63;99.77;102167.53;1775775;80;21126;-56
2020/12/16 06:28:45;;;;;;;20.97;11.48;;;;;;;1.66;99.82;102159.26;1764359;81;21049;-56
2020/12/16 06:31:31;;;;;;;23.18;11.28;;;;;;;1.70;99.75;102168.14;1775776;80;21119;-56
2020/12/16 06:34:12;;;;;;;19.62;11.05;;;;;;;1.70;99.58;102171.69;1764334;81;21144;-56
2020/12/16 06:36:42;;;;;;;20.65;10.68;;;;;;;1.69;99.39;102167.27;1774949;80;22243;-56
2020/12/16 06:39:17;;;;;;;19.62;10.85;;;;;;;1.69;99.30;102167.27;1770726;80;21202;-57
2020/12/16 06:41:57;;;;;;;18.23;9.65;;;;;;;1.68;99.36;102173.41;1770847;81;21076;-56
2020/12/16 06:44:25;;;;;;;21.93;11.05;;;;;;;1.69;99.48;102172.55;1771010;81;21496;-57
2020/12/16 06:46:55;;;;;;;26.23;11.12;;;;;;;1.74;99.46;102181.02;1770935;80;21522;-55
2020/12/16 06:49:27;;;;;;;19.73;10.58;;;;;;;1.72;99.23;102180.97;1770926;81;22126;-55
2020/12/16 06:52:07;;;;;;;18.25;10.70;;;;;;;1.70;99.21;102187.56;1770384;80;21096;-55
2020/12/16 06:54:41;;;;;;;22.87;11.85;;;;;;;1.69;99.17;102184.45;1770775;81;21175;-56
2020/12/16 06:57:22;;;;;;;20.48;11.38;;;;;;;1.70;99.19;102188.88;1768096;80;21149;-56
2020/12/16 06:59:55;;;;;;;24.85;12.00;;;;;;;1.71;99.17;102188.02;1747562;81;21572;-56
2020/12/16 07:02:28;;;;;;;19.05;10.18;;;;;;;1.70;99.06;102188.88;1747239;81;21224;-58
2020/12/16 07:04:57;;;;;;;21.85;10.93;;;;;;;1.68;99.07;102189.28;1747469;82;21481;-56
2020/12/16 07:07:46;;;;;;;16.87;10.05;;;;;;;1.71;99.12;102183.15;1747446;82;21077;-56
2020/12/16 07:10:40;;;;;;;20.65;11.33;;;;;;;1.72;99.03;102195.52;1747452;82;21049;-56
2020/12/16 07:13:22;;;;;;;20.57;10.65;;;;;;;1.69;98.94;102185.77;1765483;80;21145;-57
2020/12/16 07:16:03;;;;;;;22.70;10.68;;;;;;;1.71;99.13;102195.95;1778065;79;21419;-56
2020/12/16 07:21:28;;;;;;;23.20;11.60;;;;;;;1.81;99.15;102202.78;1889579;76;22667;-56
2020/12/16 07:24:08;;;;;;;20.95;10.82;;;;;;;1.79;99.21;102207.14;1860307;77;20881;-56
2020/12/16 07:26:48;;;;;;;17.27;8.20;;;;;;;1.80;99.14;102206.28;1857205;77;21317;-56
2020/12/16 07:29:40;;;;;;;15.50;8.48;;;;;;;1.85;99.18;102211.25;1860334;77;20985;-56
2020/12/16 07:32:12;;;;;;;17.17;8.38;;;;;;;1.85;99.17;102213.48;1859367;77;20996;-57
2020/12/16 07:34:51;;;;;;;14.00;8.63;;;;;;;1.87;99.02;102220.13;1860448;77;21024;-56
2020/12/16 07:37:21;;;;;;;14.33;8.10;;;;;;;1.89;98.93;102222.41;1842649;77;21285;-56
2020/12/16 07:39:56;;;;;;;16.40;8.40;;;;;;;1.88;98.58;102223.27;1830126;78;21392;-56
2020/12/16 07:42:30;;;;;;;15.83;8.08;;;;;;;1.85;98.38;102223.16;1830039;78;20998;-56
2020/12/16 07:45:03;;;;;;;16.80;8.63;;;;;;;1.84;98.25;102229.30;1830212;78;20936;-57
2020/12/16 07:47:31;;;;;;;17.03;9.87;;;;;;;1.79;98.01;102225.66;1830322;78;21015;-56
2020/12/16 07:49:58;;;;;;;19.00;9.93;;;;;;;1.72;98.07;102220.64;1830159;78;21364;-56
2020/12/16 07:52:29;;;;;;;18.50;8.35;;;;;;;1.71;98.24;102234.72;1830227;78;21666;-58
2020/12/16 07:54:59;;;;;;;16.52;9.25;;;;;;;1.71;98.43;102236.95;1829985;78;20932;-56
2020/12/16 07:57:28;;;;;;;19.65;10.60;;;;;;;1.73;98.48;102234.77;1830193;78;21050;-58
2020/12/16 07:59:56;;;;;;;21.75;9.70;;;;;;;1.70;98.42;102235.16;1830015;78;21046;-57
2020/12/16 08:02:24;;;;;;;18.85;10.48;;;;;;;1.70;98.46;102236.48;1830213;78;21039;-57
2020/12/16 08:05:02;;;;;;;20.55;9.98;;;;;;;1.70;98.57;102236.89;1830095;78;21200;-57
2020/12/16 08:07:30;;;;;;;18.90;9.93;;;;;;;1.70;98.62;102240.45;1830072;78;20975;-58
2020/12/16 08:10:01;;;;;;;19.92;10.60;;;;;;;1.74;98.67;102236.55;1830090;78;21059;-56
2020/12/16 08:12:33;;;;;;;19.12;10.25;;;;;;;1.75;98.76;102237.02;1830044;78;20988;-57
2020/12/16 08:15:12;;;;;;;19.70;10.85;;;;;;;1.75;98.89;102234.38;1830145;78;20980;-56
2020/12/16 08:17:43;;;;;;;22.82;11.00;;;;;;;1.75;98.97;102233.05;1830047;78;21366;-56
2020/12/16 08:20:22;;;;;;;23.25;11.60;;;;;;;1.77;99.05;102232.25;1829885;77;21137;-56
2020/12/16 08:22:57;;;;;;;18.92;10.32;;;;;;;1.77;98.97;102225.64;1830024;78;21124;-56
2020/12/16 08:25:25;;;;;;;15.65;8.55;;;;;;;1.80;99.05;102229.68;1830263;78;21038;-57
2020/12/16 08:27:54;;;;;;;21.20;9.13;;;;;;;1.85;98.96;102223.16;1830037;78;21130;-57
2020/12/16 08:30:25;;;;;;;17.50;9.15;;;;;;;1.85;98.66;102228.45;1829856;78;21532;-57
2020/12/16 08:33:06;;;;;;;16.77;9.08;;;;;;;1.87;98.52;102224.09;1829411;78;21522;-57
2020/12/16 08:35:50;;;;;;;17.40;9.30;;;;;;;1.88;98.42;102232.52;1829510;78;21038;-56
2020/12/16 08:38:38;;;;;;;13.50;7.78;;;;;;;1.87;98.22;102224.09;1859694;77;21029;-56
2020/12/16 08:41:17;;;;;;;17.17;9.23;;;;;;;1.94;98.17;102226.05;1889486;76;22593;-58
2020/12/16 08:43:46;;;;;;;17.07;9.38;;;;;;;1.91;98.12;102224.66;1859990;77;20953;-55
2020/12/16 08:46:17;;;;;;;18.67;9.98;;;;;;;1.94;97.93;102222.49;1860452;77;23505;-56
2020/12/16 08:49:02;;;;;;;14.85;7.95;;;;;;;1.93;97.71;102211.03;1860338;77;20972;-56
2020/12/16 08:51:40;;;;;;;14.87;8.48;;;;;;;1.95;97.68;102214.61;1859500;76;21131;-56
2020/12/16 08:56:56;;;;;;;19.93;10.50;;;;;;;2.14;97.75;102216.37;1889391;76;22673;-57
2020/12/16 08:59:33;;;;;;;16.02;9.03;;;;;;;2.12;97.45;102215.45;1860299;77;21040;-57
2020/12/16 09:02:10;;;;;;;14.75;7.85;;;;;;;2.14;97.14;102215.05;1850114;76;22232;-57
2020/12/16 09:04:39;;;;;;;12.35;7.25;;;;;;;2.12;96.91;102216.77;1824876;78;21074;-56
2020/12/16 09:07:13;;;;;;;14.35;6.83;;;;;;;2.13;96.83;102218.56;1794767;78;21121;-56
2020/12/16 09:09:50;;;;;;;12.43;5.87;;;;;;;2.15;96.72;102220.81;1824840;78;21622;-57
2020/12/16 09:12:19;;;;;;;12.05;5.80;;;;;;;2.18;96.41;102222.20;1824365;78;21110;-57
2020/12/16 09:15:02;;;;;;;10.53;5.47;;;;;;;2.19;96.10;102216.05;1824582;78;21613;-57
2020/12/16 09:17:31;;;;;;;9.85;5.03;;;;;;;2.21;95.94;102214.33;1824355;78;21036;-57
2020/12/16 09:20:01;;;;;;;10.98;5.37;;;;;;;2.24;95.79;102211.75;1824597;78;21035;-55
2020/12/16 09:22:32;;;;;;;10.08;5.47;;;;;;;2.30;95.59;102212.33;1824567;78;21205;-58
2020/12/16 09:25:01;;;;;;;11.45;6.35;;;;;;;2.32;95.29;102213.66;1824677;78;21139;-57
2020/12/16 09:27:29;;;;;;;10.93;5.58;;;;;;;2.34;95.18;102217.27;1824560;78;21195;-57
2020/12/16 09:29:58;;;;;;;11.18;5.50;;;;;;;2.34;94.93;102220.80;1824521;78;21570;-56
2020/12/16 09:32:26;;;;;;;10.60;5.40;;;;;;;2.33;94.63;102224.30;1824776;78;21184;-56
2020/12/16 09:34:55;;;;;;;8.90;5.10;;;;;;;2.30;94.53;102212.33;1857495;76;21543;-56
2020/12/16 09:37:33;;;;;;;10.82;5.45;;;;;;;2.31;94.47;102211.88;1864590;76;21087;-56
2020/12/16 09:40:05;;;;;;;13.35;5.75;;;;;;;2.31;94.43;102214.53;1826546;78;21187;-57
2020/12/16 09:42:34;;;;;;;13.08;5.37;;;;;;;2.27;94.35;102211.81;1825591;78;21601;-56
2020/12/16 09:45:21;;;;;;;11.55;5.42;;;;;;;2.28;94.41;102217.57;1838138;76;21409;-57
2020/12/16 09:47:51;;;;;;;13.58;5.83;;;;;;;2.30;94.17;102216.30;1796838;78;21103;-56
2020/12/16 09:50:26;;;;;;;13.08;6.05;;;;;;;2.27;94.09;102213.14;1826234;78;21177;-56
2020/12/16 09:52:58;;;;;;;;;;;;;;;2.28;94.12;102222.86;1828903;78;22272;-56
2020/12/16 09:55:28;;;;;;;15.23;6.17;;;;;;;2.29;94.20;102218.03;1829455;76;20548;-56
2020/12/16 09:58:12;;;;;;;12.05;5.72;;;;;;;2.31;94.37;102214.53;1844596;77;21018;-56
2020/12/16 10:00:40;;;;;;;12.40;5.72;;;;;;;2.34;94.49;102217.27;1846560;77;21556;-55
2020/12/16 10:03:10;;;;;;;11.15;6.00;;;;;;;2.33;94.42;102218.13;1860150;77;21095;-60
2020/12/16 10:05:40;;;;;;;12.88;7.08;;;;;;;2.32;94.44;102216.31;1818336;78;22257;-57
2020/12/16 10:08:17;;;;;;;14.55;6.83;;;;;;;2.35;94.56;102219.06;1822035;78;21164;-55
2020/12/16 10:10:45;;;;;;;11.57;6.73;;;;;;;2.35;94.57;102217.29;1789860;80;21125;-56
2020/12/16 10:13:13;;;;;;;16.70;7.25;;;;;;;2.36;94.51;102216.87;1822002;78;21053;-57
2020/12/16 10:15:41;;;;;;;11.95;5.90;;;;;;;2.31;94.33;102216.77;1822165;78;20944;-57
2020/12/16 10:18:08;;;;;;;13.30;5.80;;;;;;;2.28;94.29;102216.25;1786621;78;21370;-57
2020/12/16 10:20:36;;;;;;;11.40;5.20;;;;;;;2.24;94.14;102218.37;1787930;80;21166;-56
2020/12/16 10:23:04;;;;;;;11.33;5.45;;;;;;;2.23;94.16;102211.28;1788045;80;21066;-57
2020/12/16 10:25:31;;;;;;;15.38;6.40;;;;;;;2.26;94.19;102214.45;1776764;79;21185;-57
2020/12/16 10:28:01;;;;;;;13.10;5.55;;;;;;;2.26;94.19;102217.97;1788177;79;21230;-56
2020/12/16 10:30:29;;;;;;;11.73;5.65;;;;;;;2.26;94.28;102215.32;1780665;80;21686;-57
2020/12/16 10:32:57;;;;;;;11.40;5.85;;;;;;;2.25;94.38;102205.59;1780623;80;21173;-56
2020/12/16 10:35:24;;;;;;;14.63;5.92;;;;;;;2.27;94.58;102209.17;1780434;79;21109;-57
2020/12/16 10:37:52;;;;;;;11.10;6.50;;;;;;;2.37;94.68;102213.37;1757049;80;21207;-56
2020/12/16 10:40:20;;;;;;;13.53;6.62;;;;;;;2.41;94.59;102208.16;1782668;80;21039;-57
2020/12/16 10:42:49;;;;;;;14.75;6.92;;;;;;;2.46;94.41;102203.42;1779903;80;21187;-57
2020/12/16 10:45:17;;;;;;;12.68;5.97;;;;;;;2.50;94.38;102204.81;1782311;80;21278;-56
2020/12/16 10:47:44;;;;;;;18.55;7.35;;;;;;;2.55;94.33;102203.19;1781174;79;21167;-57
2020/12/16 10:50:12;;;;;;;17.12;7.85;;;;;;;2.60;94.13;102206.36;1797499;78;21135;-57
2020/12/16 10:52:39;;;;;;;18.02;7.33;;;;;;;2.63;93.87;102200.67;1825138;78;21159;-57
2020/12/16 10:55:07;;;;;;;15.50;7.17;;;;;;;2.65;93.63;102197.66;1825274;78;21455;-56
2020/12/16 10:57:35;;;;;;;15.63;6.97;;;;;;;2.62;93.39;102198.02;1825249;78;21112;-56
2020/12/16 11:00:03;;;;;;;16.00;7.60;;;;;;;2.57;93.37;102191.29;1805182;78;21043;-56
2020/12/16 11:02:31;;;;;;;13.30;6.03;;;;;;;2.55;93.51;102192.59;1793542;80;21055;-57
2020/12/16 11:04:58;;;;;;;14.68;6.33;;;;;;;2.56;93.46;102187.77;1763273;81;21117;-56
2020/12/16 11:07:26;;;;;;;10.75;6.20;;;;;;;2.57;93.45;102184.25;1755218;79;21697;-56
2020/12/16 11:09:53;;;;;;;10.80;6.53;;;;;;;2.60;93.40;102183.41;1770955;81;21087;-56
2020/12/16 11:12:23;;;;;;;14.38;6.08;;;;;;;2.62;93.30;102176.83;1754605;81;21117;-57
2020/12/16 11:14:51;;;;;;;13.98;7.20;;;;;;;2.63;93.14;102179.94;1771010;81;21119;-57
2020/12/16 11:17:19;;;;;;;15.53;7.15;;;;;;;2.65;93.03;102175.56;1754632;81;21110;-57
2020/12/16 11:19:46;;;;;;;13.25;6.47;;;;;;;2.66;92.92;102177.35;1771024;80;21337;-57
2020/12/16 11:22:13;;;;;;;16.40;6.95;;;;;;;2.68;92.83;102175.63;1755645;80;21173;-56
2020/12/16 11:24:41;;;;;;;18.65;7.05;;;;;;;2.67;92.70;102172.52;1776916;80;21525;-56
2020/12/16 11:27:08;;;;;;;12.88;5.90;;;;;;;2.65;92.57;102178.22;1783032;80;21399;-55
2020/12/16 11:29:36;;;;;;;11.55;6.90;;;;;;;2.57;92.26;102177.63;1774880;80;21173;-56
2020/12/16 11:32:04;;;;;;;12.03;6.95;;;;;;;2.49;92.39;102180.52;1789147;78;21537;-57
2020/12/16 11:34:32;;;;;;;19.70;7.42;;;;;;;2.49;92.73;102177.88;1788879;80;21128;-56
2020/12/16 11:37:01;;;;;;;18.85;7.83;;;;;;;2.50;92.75;102177.02;1804004;78;21129;-57
2020/12/16 11:39:29;;;;;;;22.02;7.15;;;;;;;2.47;92.66;102176.95;1788804;79;21177;-57
2020/12/16 11:41:57;;;;;;;13.15;6.90;;;;;;;2.40;92.81;102173.72;1800204;78;21115;-56
2020/12/16 11:44:25;;;;;;;12.58;7.00;;;;;;;2.32;93.05;102164.70;1821725;78;21370;-56